sensor_id;sensor_type;location;lat;lon;timestamp;temperature;humidity
6518;DHT22;3292;48.944;9.240;2023-04-01T00:01:05;9.20;99.90
6518;DHT22;3292;48.944;9.240;2023-04-01T00:03:33;9.20;99.90
6518;DHT22;3292;48.944;9.240;2023-04-01T00:06:00;9.20;99.90
6518;DHT22;3292;48.944;9.240;2023-04-01T00:08:29;9.10;99.90
6518;DHT22;3292;48.944;9.240;2023-04-01T00:10:56;9.10;99.90
6518;DHT22;3292;48.944;9.240;2023-04-01T00:13:24;9.10;99.90
6518;DHT22;3292;48.944;9.240;2023-04-01T00:15:51;9.10;99.90
6518;DHT22;3292;48.944;9.240;2023-04-01T00:18:18;9.10;99.90
6518;DHT22;3292;48.944;9.240;2023-04-01T00:20:45;9.10;99.90
6518;DHT22;3292;48.944;9.240;2023-04-01T00:23:12;9.10;99.90
6518;DHT22;3292;48.944;9.240;2023-04-01T00:25:41;9.10;99.90
6518;DHT22;3292;48.944;9.240;2023-04-01T00:28:08;9.10;99.90
6518;DHT22;3292;48.944;9.240;2023-04-01T00:30:35;9.10;99.90
6518;DHT22;3292;48.944;9.240;2023-04-01T00:33:02;9.10;99.90
6518;DHT22;3292;48.944;9.240;2023-04-01T00:35:29;9.10;99.90
6518;DHT22;3292;48.944;9.240;2023-04-01T00:37:57;9.10;99.90
6518;DHT22;3292;48.944;9.240;2023-04-01T00:40:27;9.10;99.90
6518;DHT22;3292;48.944;9.240;2023-04-01T00:42:55;9.10;99.90
6518;DHT22;3292;48.944;9.240;2023-04-01T00:45:32;9.10;99.90
6518;DHT22;3292;48.944;9.240;2023-04-01T00:48:02;9.10;99.90
6518;DHT22;3292;48.944;9.240;2023-04-01T00:50:31;9.10;99.90
6518;DHT22;3292;48.944;9.240;2023-04-01T00:53:00;9.10;99.90
6518;DHT22;3292;48.944;9.240;2023-04-01T00:55:30;9.10;99.90
6518;DHT22;3292;48.944;9.240;2023-04-01T00:57:59;9.20;99.90
6518;DHT22;3292;48.944;9.240;2023-04-01T01:00:26;9.20;99.90
6518;DHT22;3292;48.944;9.240;2023-04-01T01:02:53;9.20;99.90
6518;DHT22;3292;48.944;9.240;2023-04-01T01:05:28;9.20;99.90
6518;DHT22;3292;48.944;9.240;2023-04-01T01:08:01;9.20;99.90
6518;DHT22;3292;48.944;9.240;2023-04-01T01:10:31;9.20;99.90
6518;DHT22;3292;48.944;9.240;2023-04-01T01:13:04;9.20;99.90
6518;DHT22;3292;48.944;9.240;2023-04-01T01:15:39;9.20;99.90
6518;DHT22;3292;48.944;9.240;2023-04-01T01:18:13;9.20;99.90
6518;DHT22;3292;48.944;9.240;2023-04-01T01:20:48;9.30;99.90
6518;DHT22;3292;48.944;9.240;2023-04-01T01:23:54;9.30;99.90
6518;DHT22;3292;48.944;9.240;2023-04-01T01:26:50;9.30;99.90
6518;DHT22;3292;48.944;9.240;2023-04-01T01:29:43;9.30;99.90
6518;DHT22;3292;48.944;9.240;2023-04-01T01:32:18;9.30;99.90
6518;DHT22;3292;48.944;9.240;2023-04-01T01:34:49;9.30;99.90
6518;DHT22;3292;48.944;9.240;2023-04-01T01:37:23;9.30;99.90
6518;DHT22;3292;48.944;9.240;2023-04-01T01:39:55;9.30;99.90
6518;DHT22;3292;48.944;9.240;2023-04-01T01:42:24;9.30;99.90
6518;DHT22;3292;48.944;9.240;2023-04-01T01:44:52;9.30;99.90
6518;DHT22;3292;48.944;9.240;2023-04-01T01:47:21;9.30;99.90
6518;DHT22;3292;48.944;9.240;2023-04-01T01:49:49;9.30;99.90
6518;DHT22;3292;48.944;9.240;2023-04-01T01:52:17;9.30;99.90
6518;DHT22;3292;48.944;9.240;2023-04-01T01:54:49;9.30;99.90
6518;DHT22;3292;48.944;9.240;2023-04-01T01:57:17;9.30;99.90
6518;DHT22;3292;48.944;9.240;2023-04-01T01:59:47;9.30;99.90
6518;DHT22;3292;48.944;9.240;2023-04-01T02:02:15;9.30;99.90
6518;DHT22;3292;48.944;9.240;2023-04-01T02:04:45;9.30;99.90
6518;DHT22;3292;48.944;9.240;2023-04-01T02:07:16;9.30;99.90
6518;DHT22;3292;48.944;9.240;2023-04-01T02:09:44;9.30;99.90
6518;DHT22;3292;48.944;9.240;2023-04-01T02:12:14;9.30;99.90
6518;DHT22;3292;48.944;9.240;2023-04-01T02:14:45;9.30;99.90
6518;DHT22;3292;48.944;9.240;2023-04-01T02:17:16;9.30;99.90
6518;DHT22;3292;48.944;9.240;2023-04-01T02:19:47;9.30;99.90
6518;DHT22;3292;48.944;9.240;2023-04-01T02:22:18;9.30;99.90
6518;DHT22;3292;48.944;9.240;2023-04-01T02:24:45;9.20;99.90
6518;DHT22;3292;48.944;9.240;2023-04-01T02:27:14;9.20;99.90
6518;DHT22;3292;48.944;9.240;2023-04-01T02:29:40;9.20;99.90
6518;DHT22;3292;48.944;9.240;2023-04-01T02:32:08;9.10;99.90
6518;DHT22;3292;48.944;9.240;2023-04-01T02:34:36;9.10;99.90
6518;DHT22;3292;48.944;9.240;2023-04-01T02:37:03;9.10;99.90
6518;DHT22;3292;48.944;9.240;2023-04-01T02:39:30;9.10;99.90
6518;DHT22;3292;48.944;9.240;2023-04-01T02:41:57;9.00;99.90
6518;DHT22;3292;48.944;9.240;2023-04-01T02:44:25;9.00;99.90
6518;DHT22;3292;48.944;9.240;2023-04-01T02:46:52;9.00;99.90
6518;DHT22;3292;48.944;9.240;2023-04-01T02:49:19;9.00;99.90
6518;DHT22;3292;48.944;9.240;2023-04-01T02:51:45;8.90;99.90
6518;DHT22;3292;48.944;9.240;2023-04-01T02:54:12;8.90;99.90
6518;DHT22;3292;48.944;9.240;2023-04-01T02:56:39;9.00;99.90
6518;DHT22;3292;48.944;9.240;2023-04-01T02:59:06;9.00;99.90
6518;DHT22;3292;48.944;9.240;2023-04-01T03:01:34;9.00;99.90
6518;DHT22;3292;48.944;9.240;2023-04-01T03:04:01;9.00;99.90
6518;DHT22;3292;48.944;9.240;2023-04-01T03:06:28;9.00;99.90
6518;DHT22;3292;48.944;9.240;2023-04-01T03:08:55;9.00;99.90
6518;DHT22;3292;48.944;9.240;2023-04-01T03:11:22;9.00;99.90
6518;DHT22;3292;48.944;9.240;2023-04-01T03:13:48;9.00;99.90
6518;DHT22;3292;48.944;9.240;2023-04-01T03:16:15;8.90;99.90
6518;DHT22;3292;48.944;9.240;2023-04-01T03:18:44;8.90;99.90
6518;DHT22;3292;48.944;9.240;2023-04-01T03:21:15;8.90;99.90
6518;DHT22;3292;48.944;9.240;2023-04-01T03:23:42;8.90;99.90
6518;DHT22;3292;48.944;9.240;2023-04-01T03:26:09;8.90;99.90
6518;DHT22;3292;48.944;9.240;2023-04-01T03:28:36;8.90;99.90
6518;DHT22;3292;48.944;9.240;2023-04-01T03:31:03;8.80;99.90
6518;DHT22;3292;48.944;9.240;2023-04-01T03:33:30;8.80;99.90
6518;DHT22;3292;48.944;9.240;2023-04-01T03:35:58;8.80;99.90
6518;DHT22;3292;48.944;9.240;2023-04-01T03:38:25;8.70;99.90
6518;DHT22;3292;48.944;9.240;2023-04-01T03:40:52;8.70;99.90
6518;DHT22;3292;48.944;9.240;2023-04-01T03:43:19;8.70;99.90
6518;DHT22;3292;48.944;9.240;2023-04-01T03:45:46;8.70;99.90
6518;DHT22;3292;48.944;9.240;2023-04-01T03:48:14;8.60;99.90
6518;DHT22;3292;48.944;9.240;2023-04-01T03:50:41;8.60;99.90
6518;DHT22;3292;48.944;9.240;2023-04-01T03:53:09;8.60;99.90
6518;DHT22;3292;48.944;9.240;2023-04-01T03:55:36;8.50;99.90
6518;DHT22;3292;48.944;9.240;2023-04-01T03:58:04;8.50;99.90
6518;DHT22;3292;48.944;9.240;2023-04-01T04:00:31;8.50;99.90
6518;DHT22;3292;48.944;9.240;2023-04-01T04:02:58;8.50;99.90
6518;DHT22;3292;48.944;9.240;2023-04-01T04:05:26;8.50;99.90
6518;DHT22;3292;48.944;9.240;2023-04-01T04:07:54;8.40;99.90
6518;DHT22;3292;48.944;9.240;2023-04-01T04:10:22;8.40;99.90
6518;DHT22;3292;48.944;9.240;2023-04-01T04:12:51;8.40;99.90
6518;DHT22;3292;48.944;9.240;2023-04-01T04:15:18;8.30;99.90
6518;DHT22;3292;48.944;9.240;2023-04-01T04:17:45;8.30;99.90
6518;DHT22;3292;48.944;9.240;2023-04-01T04:20:11;8.40;99.90
6518;DHT22;3292;48.944;9.240;2023-04-01T04:22:38;8.40;99.90
6518;DHT22;3292;48.944;9.240;2023-04-01T04:25:06;8.40;99.90
6518;DHT22;3292;48.944;9.240;2023-04-01T04:27:34;8.40;99.90
6518;DHT22;3292;48.944;9.240;2023-04-01T04:30:02;8.40;99.90
6518;DHT22;3292;48.944;9.240;2023-04-01T04:32:30;8.40;99.90
6518;DHT22;3292;48.944;9.240;2023-04-01T04:34:56;8.50;99.90
6518;DHT22;3292;48.944;9.240;2023-04-01T04:37:23;8.50;99.90
6518;DHT22;3292;48.944;9.240;2023-04-01T04:39:51;8.50;99.90
6518;DHT22;3292;48.944;9.240;2023-04-01T04:42:18;8.50;99.90
6518;DHT22;3292;48.944;9.240;2023-04-01T04:44:46;8.50;99.90
6518;DHT22;3292;48.944;9.240;2023-04-01T04:47:13;8.50;99.90
6518;DHT22;3292;48.944;9.240;2023-04-01T04:49:40;8.50;99.90
6518;DHT22;3292;48.944;9.240;2023-04-01T04:52:06;8.50;99.90
6518;DHT22;3292;48.944;9.240;2023-04-01T04:54:33;8.50;99.90
6518;DHT22;3292;48.944;9.240;2023-04-01T04:57:00;8.50;99.90
6518;DHT22;3292;48.944;9.240;2023-04-01T04:59:27;8.60;99.90
6518;DHT22;3292;48.944;9.240;2023-04-01T05:01:55;8.50;99.90
6518;DHT22;3292;48.944;9.240;2023-04-01T05:04:22;8.50;99.90
6518;DHT22;3292;48.944;9.240;2023-04-01T05:06:49;8.50;99.90
6518;DHT22;3292;48.944;9.240;2023-04-01T05:09:17;8.60;99.90
6518;DHT22;3292;48.944;9.240;2023-04-01T05:11:44;8.60;99.90
6518;DHT22;3292;48.944;9.240;2023-04-01T05:14:13;8.50;99.90
6518;DHT22;3292;48.944;9.240;2023-04-01T05:16:40;8.50;99.90
6518;DHT22;3292;48.944;9.240;2023-04-01T05:19:08;8.60;99.90
6518;DHT22;3292;48.944;9.240;2023-04-01T05:21:35;8.60;99.90
6518;DHT22;3292;48.944;9.240;2023-04-01T05:24:01;8.60;99.90
6518;DHT22;3292;48.944;9.240;2023-04-01T05:26:28;8.60;99.90
6518;DHT22;3292;48.944;9.240;2023-04-01T05:28:56;8.60;99.90
6518;DHT22;3292;48.944;9.240;2023-04-01T05:31:22;8.60;99.90
6518;DHT22;3292;48.944;9.240;2023-04-01T05:33:51;8.60;99.90
6518;DHT22;3292;48.944;9.240;2023-04-01T05:36:20;8.70;99.90
6518;DHT22;3292;48.944;9.240;2023-04-01T05:38:47;8.70;99.90
6518;DHT22;3292;48.944;9.240;2023-04-01T05:41:14;8.70;99.90
6518;DHT22;3292;48.944;9.240;2023-04-01T05:43:42;8.80;99.90
6518;DHT22;3292;48.944;9.240;2023-04-01T05:46:08;8.70;99.90
6518;DHT22;3292;48.944;9.240;2023-04-01T05:48:35;8.70;99.90
6518;DHT22;3292;48.944;9.240;2023-04-01T05:51:03;8.70;99.90
6518;DHT22;3292;48.944;9.240;2023-04-01T05:53:31;8.80;99.90
6518;DHT22;3292;48.944;9.240;2023-04-01T05:56:02;8.70;99.90
6518;DHT22;3292;48.944;9.240;2023-04-01T05:58:29;8.70;99.90
6518;DHT22;3292;48.944;9.240;2023-04-01T06:01:01;8.60;99.90
6518;DHT22;3292;48.944;9.240;2023-04-01T06:03:28;8.60;99.90
6518;DHT22;3292;48.944;9.240;2023-04-01T06:05:55;8.70;99.90
6518;DHT22;3292;48.944;9.240;2023-04-01T06:08:22;8.70;99.90
6518;DHT22;3292;48.944;9.240;2023-04-01T06:10:55;8.70;99.90
6518;DHT22;3292;48.944;9.240;2023-04-01T06:13:37;8.70;99.90
6518;DHT22;3292;48.944;9.240;2023-04-01T06:16:12;8.70;99.90
6518;DHT22;3292;48.944;9.240;2023-04-01T06:19:07;8.80;99.90
6518;DHT22;3292;48.944;9.240;2023-04-01T06:24:57;9.00;99.90
6518;DHT22;3292;48.944;9.240;2023-04-01T06:27:41;9.00;99.90
6518;DHT22;3292;48.944;9.240;2023-04-01T06:30:29;9.10;99.90
6518;DHT22;3292;48.944;9.240;2023-04-01T06:36:22;9.20;99.90
6518;DHT22;3292;48.944;9.240;2023-04-01T06:39:06;9.30;99.90
6518;DHT22;3292;48.944;9.240;2023-04-01T06:44:49;9.30;99.90
6518;DHT22;3292;48.944;9.240;2023-04-01T06:47:31;9.40;99.90
6518;DHT22;3292;48.944;9.240;2023-04-01T06:50:07;9.40;99.90
6518;DHT22;3292;48.944;9.240;2023-04-01T06:52:43;9.50;99.90
6518;DHT22;3292;48.944;9.240;2023-04-01T06:55:24;9.50;99.90
6518;DHT22;3292;48.944;9.240;2023-04-01T06:57:55;9.50;99.90
6518;DHT22;3292;48.944;9.240;2023-04-01T07:00:27;9.50;99.90
6518;DHT22;3292;48.944;9.240;2023-04-01T07:03:02;9.50;99.90
6518;DHT22;3292;48.944;9.240;2023-04-01T07:05:32;9.50;99.90
6518;DHT22;3292;48.944;9.240;2023-04-01T07:08:03;9.50;99.90
6518;DHT22;3292;48.944;9.240;2023-04-01T07:10:35;9.50;99.90
6518;DHT22;3292;48.944;9.240;2023-04-01T07:13:09;9.60;99.90
6518;DHT22;3292;48.944;9.240;2023-04-01T07:15:41;9.60;99.90
6518;DHT22;3292;48.944;9.240;2023-04-01T07:18:12;9.60;99.90
6518;DHT22;3292;48.944;9.240;2023-04-01T07:20:41;9.60;99.90
6518;DHT22;3292;48.944;9.240;2023-04-01T07:23:16;9.60;99.90
6518;DHT22;3292;48.944;9.240;2023-04-01T07:25:51;9.60;99.90
6518;DHT22;3292;48.944;9.240;2023-04-01T07:28:18;9.70;99.90
6518;DHT22;3292;48.944;9.240;2023-04-01T07:30:52;9.70;99.90
6518;DHT22;3292;48.944;9.240;2023-04-01T07:33:31;9.70;99.90
6518;DHT22;3292;48.944;9.240;2023-04-01T07:36:05;9.70;99.90
6518;DHT22;3292;48.944;9.240;2023-04-01T07:38:45;9.70;99.90
6518;DHT22;3292;48.944;9.240;2023-04-01T07:41:23;9.70;99.90
6518;DHT22;3292;48.944;9.240;2023-04-01T07:44:04;9.70;99.90
6518;DHT22;3292;48.944;9.240;2023-04-01T07:46:50;9.70;99.90
6518;DHT22;3292;48.944;9.240;2023-04-01T07:49:22;9.70;99.90
6518;DHT22;3292;48.944;9.240;2023-04-01T07:51:57;9.70;99.90
6518;DHT22;3292;48.944;9.240;2023-04-01T07:54:32;9.70;99.90
6518;DHT22;3292;48.944;9.240;2023-04-01T07:57:04;9.80;99.90
6518;DHT22;3292;48.944;9.240;2023-04-01T07:59:38;9.90;99.90
6518;DHT22;3292;48.944;9.240;2023-04-01T08:02:15;9.90;99.90
6518;DHT22;3292;48.944;9.240;2023-04-01T08:04:57;9.90;99.90
6518;DHT22;3292;48.944;9.240;2023-04-01T08:07:30;9.90;99.90
6518;DHT22;3292;48.944;9.240;2023-04-01T08:10:07;9.90;99.90
6518;DHT22;3292;48.944;9.240;2023-04-01T08:12:48;9.90;99.90
6518;DHT22;3292;48.944;9.240;2023-04-01T08:15:23;9.90;99.90
6518;DHT22;3292;48.944;9.240;2023-04-01T08:18:14;10.00;99.90
6518;DHT22;3292;48.944;9.240;2023-04-01T08:20:47;10.00;99.90
6518;DHT22;3292;48.944;9.240;2023-04-01T08:23:21;9.90;99.90
6518;DHT22;3292;48.944;9.240;2023-04-01T08:25:52;10.00;99.90
6518;DHT22;3292;48.944;9.240;2023-04-01T08:28:26;10.10;99.90
6518;DHT22;3292;48.944;9.240;2023-04-01T08:31:02;10.10;99.90
6518;DHT22;3292;48.944;9.240;2023-04-01T08:33:33;10.00;99.90
6518;DHT22;3292;48.944;9.240;2023-04-01T08:36:05;10.00;99.90
6518;DHT22;3292;48.944;9.240;2023-04-01T08:38:39;10.00;99.90
6518;DHT22;3292;48.944;9.240;2023-04-01T08:44:31;9.90;99.90
6518;DHT22;3292;48.944;9.240;2023-04-01T08:47:14;9.80;99.90
6518;DHT22;3292;48.944;9.240;2023-04-01T08:52:54;9.60;99.90
6518;DHT22;3292;48.944;9.240;2023-04-01T08:55:31;9.50;99.90
6518;DHT22;3292;48.944;9.240;2023-04-01T09:00:55;9.30;99.90
6518;DHT22;3292;48.944;9.240;2023-04-01T09:03:37;9.30;99.90
6518;DHT22;3292;48.944;9.240;2023-04-01T09:06:30;9.20;99.90
6518;DHT22;3292;48.944;9.240;2023-04-01T09:09:22;9.20;99.90
6518;DHT22;3292;48.944;9.240;2023-04-01T09:12:12;9.20;99.90
6518;DHT22;3292;48.944;9.240;2023-04-01T09:14:54;9.20;99.90
6518;DHT22;3292;48.944;9.240;2023-04-01T09:17:49;9.20;99.90
6518;DHT22;3292;48.944;9.240;2023-04-01T09:20:45;9.20;99.90
6518;DHT22;3292;48.944;9.240;2023-04-01T09:26:42;9.30;99.90
6518;DHT22;3292;48.944;9.240;2023-04-01T09:29:23;9.30;99.90
6518;DHT22;3292;48.944;9.240;2023-04-01T09:32:17;9.40;99.90
6518;DHT22;3292;48.944;9.240;2023-04-01T09:34:53;9.50;99.90
6518;DHT22;3292;48.944;9.240;2023-04-01T09:37:24;9.60;99.90
6518;DHT22;3292;48.944;9.240;2023-04-01T09:40:15;9.70;99.90
6518;DHT22;3292;48.944;9.240;2023-04-01T09:45:37;9.80;99.90
6518;DHT22;3292;48.944;9.240;2023-04-01T09:48:24;9.70;99.90
6518;DHT22;3292;48.944;9.240;2023-04-01T09:51:03;9.70;99.90
6518;DHT22;3292;48.944;9.240;2023-04-01T09:53:49;9.80;99.90
6518;DHT22;3292;48.944;9.240;2023-04-01T10:03:18;9.90;99.90
6518;DHT22;3292;48.944;9.240;2023-04-01T10:12:28;9.90;99.90
6518;DHT22;3292;48.944;9.240;2023-04-01T10:18:25;10.00;99.90
6518;DHT22;3292;48.944;9.240;2023-04-01T10:21:22;10.00;99.90
6518;DHT22;3292;48.944;9.240;2023-04-01T10:24:19;10.00;99.90
6518;DHT22;3292;48.944;9.240;2023-04-01T10:30:13;10.00;99.90
6518;DHT22;3292;48.944;9.240;2023-04-01T10:39:08;9.90;99.90
6518;DHT22;3292;48.944;9.240;2023-04-01T10:45:13;9.90;99.90
6518;DHT22;3292;48.944;9.240;2023-04-01T10:51:12;10.00;99.90
6518;DHT22;3292;48.944;9.240;2023-04-01T10:53:49;10.00;99.90
6518;DHT22;3292;48.944;9.240;2023-04-01T10:56:39;10.10;99.90
6518;DHT22;3292;48.944;9.240;2023-04-01T10:59:32;10.10;99.90
6518;DHT22;3292;48.944;9.240;2023-04-01T11:11:35;10.10;99.90
6518;DHT22;3292;48.944;9.240;2023-04-01T11:20:57;10.10;99.90
6518;DHT22;3292;48.944;9.240;2023-04-01T11:23:38;10.10;99.90
6518;DHT22;3292;48.944;9.240;2023-04-01T11:26:23;10.10;99.90
6518;DHT22;3292;48.944;9.240;2023-04-01T11:31:55;10.10;99.90
6518;DHT22;3292;48.944;9.240;2023-04-01T11:34:44;10.20;99.90
6518;DHT22;3292;48.944;9.240;2023-04-01T11:37:29;10.20;99.90
6518;DHT22;3292;48.944;9.240;2023-04-01T11:40:11;10.20;99.90
6518;DHT22;3292;48.944;9.240;2023-04-01T11:42:43;10.20;99.90
6518;DHT22;3292;48.944;9.240;2023-04-01T11:45:23;10.30;99.90
6518;DHT22;3292;48.944;9.240;2023-04-01T11:48:26;10.30;99.90
6518;DHT22;3292;48.944;9.240;2023-04-01T11:51:18;10.40;99.90
6518;DHT22;3292;48.944;9.240;2023-04-01T11:53:52;10.40;99.90
6518;DHT22;3292;48.944;9.240;2023-04-01T11:56:50;10.50;99.90
6518;DHT22;3292;48.944;9.240;2023-04-01T12:02:25;10.50;99.90
6518;DHT22;3292;48.944;9.240;2023-04-01T12:05:19;10.50;99.90
6518;DHT22;3292;48.944;9.240;2023-04-01T12:08:14;10.50;99.90
6518;DHT22;3292;48.944;9.240;2023-04-01T12:10:48;10.40;99.90
6518;DHT22;3292;48.944;9.240;2023-04-01T12:13:30;10.30;99.90
6518;DHT22;3292;48.944;9.240;2023-04-01T12:16:14;10.30;99.90
6518;DHT22;3292;48.944;9.240;2023-04-01T12:18:48;10.30;99.90
6518;DHT22;3292;48.944;9.240;2023-04-01T12:21:23;10.30;99.90
6518;DHT22;3292;48.944;9.240;2023-04-01T12:24:17;10.30;99.90
6518;DHT22;3292;48.944;9.240;2023-04-01T12:30:14;10.40;99.90
6518;DHT22;3292;48.944;9.240;2023-04-01T12:32:49;10.30;99.90
6518;DHT22;3292;48.944;9.240;2023-04-01T12:35:22;10.30;99.90
6518;DHT22;3292;48.944;9.240;2023-04-01T12:38:13;10.30;99.90
6518;DHT22;3292;48.944;9.240;2023-04-01T12:40:55;10.30;99.90
6518;DHT22;3292;48.944;9.240;2023-04-01T12:43:49;10.30;99.90
6518;DHT22;3292;48.944;9.240;2023-04-01T12:46:26;10.30;99.90
6518;DHT22;3292;48.944;9.240;2023-04-01T12:49:19;10.30;99.90
6518;DHT22;3292;48.944;9.240;2023-04-01T12:52:00;10.30;99.90
6518;DHT22;3292;48.944;9.240;2023-04-01T12:55:14;10.30;99.90
6518;DHT22;3292;48.944;9.240;2023-04-01T13:00:58;10.40;99.90
6518;DHT22;3292;48.944;9.240;2023-04-01T13:03:55;10.40;99.90
6518;DHT22;3292;48.944;9.240;2023-04-01T13:06:38;10.40;99.90
6518;DHT22;3292;48.944;9.240;2023-04-01T13:09:19;10.40;99.90
6518;DHT22;3292;48.944;9.240;2023-04-01T13:12:03;10.40;99.90
6518;DHT22;3292;48.944;9.240;2023-04-01T13:14:50;10.40;99.90
6518;DHT22;3292;48.944;9.240;2023-04-01T13:17:27;10.30;99.90
6518;DHT22;3292;48.944;9.240;2023-04-01T13:20:02;10.30;99.90
6518;DHT22;3292;48.944;9.240;2023-04-01T13:22:40;10.30;99.90
6518;DHT22;3292;48.944;9.240;2023-04-01T13:25:18;10.20;99.90
6518;DHT22;3292;48.944;9.240;2023-04-01T13:27:53;10.10;99.90
6518;DHT22;3292;48.944;9.240;2023-04-01T13:30:26;10.00;99.90
6518;DHT22;3292;48.944;9.240;2023-04-01T13:32:59;9.90;99.90
6518;DHT22;3292;48.944;9.240;2023-04-01T13:35:37;9.80;99.90
6518;DHT22;3292;48.944;9.240;2023-04-01T13:38:25;9.80;99.90
6518;DHT22;3292;48.944;9.240;2023-04-01T13:41:01;9.70;99.90
6518;DHT22;3292;48.944;9.240;2023-04-01T13:43:34;9.60;99.90
6518;DHT22;3292;48.944;9.240;2023-04-01T13:46:12;9.60;99.90
6518;DHT22;3292;48.944;9.240;2023-04-01T13:55:14;9.60;99.90
6518;DHT22;3292;48.944;9.240;2023-04-01T14:01:00;9.60;99.90
6518;DHT22;3292;48.944;9.240;2023-04-01T14:03:40;9.60;99.90
6518;DHT22;3292;48.944;9.240;2023-04-01T14:06:19;9.60;99.90
6518;DHT22;3292;48.944;9.240;2023-04-01T14:11:50;9.50;99.90
6518;DHT22;3292;48.944;9.240;2023-04-01T14:14:27;9.50;99.90
6518;DHT22;3292;48.944;9.240;2023-04-01T14:17:24;9.40;99.90
6518;DHT22;3292;48.944;9.240;2023-04-01T14:20:25;9.50;99.90
6518;DHT22;3292;48.944;9.240;2023-04-01T14:23:06;9.40;99.90
6518;DHT22;3292;48.944;9.240;2023-04-01T14:25:55;9.40;99.90
6518;DHT22;3292;48.944;9.240;2023-04-01T14:28:34;9.40;99.90
6518;DHT22;3292;48.944;9.240;2023-04-01T14:31:18;9.40;99.90
6518;DHT22;3292;48.944;9.240;2023-04-01T14:33:58;9.50;99.90
6518;DHT22;3292;48.944;9.240;2023-04-01T14:36:47;9.50;99.90
6518;DHT22;3292;48.944;9.240;2023-04-01T14:39:38;9.60;99.90
6518;DHT22;3292;48.944;9.240;2023-04-01T14:42:23;9.60;99.90
6518;DHT22;3292;48.944;9.240;2023-04-01T14:45:12;9.70;99.90
6518;DHT22;3292;48.944;9.240;2023-04-01T14:47:47;9.80;99.90
6518;DHT22;3292;48.944;9.240;2023-04-01T14:50:18;9.90;99.90
6518;DHT22;3292;48.944;9.240;2023-04-01T14:52:57;10.00;99.90
6518;DHT22;3292;48.944;9.240;2023-04-01T14:55:31;10.00;99.90
6518;DHT22;3292;48.944;9.240;2023-04-01T14:58:00;10.10;99.90
6518;DHT22;3292;48.944;9.240;2023-04-01T15:00:47;10.10;99.90
6518;DHT22;3292;48.944;9.240;2023-04-01T15:03:19;10.20;99.90
6518;DHT22;3292;48.944;9.240;2023-04-01T15:05:49;10.20;99.90
6518;DHT22;3292;48.944;9.240;2023-04-01T15:08:21;10.20;99.90
6518;DHT22;3292;48.944;9.240;2023-04-01T15:10:58;10.20;99.90
6518;DHT22;3292;48.944;9.240;2023-04-01T15:13:56;10.20;99.90
6518;DHT22;3292;48.944;9.240;2023-04-01T15:16:31;10.20;99.90
6518;DHT22;3292;48.944;9.240;2023-04-01T15:19:09;10.20;99.90
6518;DHT22;3292;48.944;9.240;2023-04-01T15:21:50;10.20;99.90
6518;DHT22;3292;48.944;9.240;2023-04-01T15:24:24;10.10;99.90
6518;DHT22;3292;48.944;9.240;2023-04-01T15:27:15;10.10;99.90
6518;DHT22;3292;48.944;9.240;2023-04-01T15:30:05;10.20;99.90
6518;DHT22;3292;48.944;9.240;2023-04-01T15:32:49;10.20;99.90
6518;DHT22;3292;48.944;9.240;2023-04-01T15:35:27;10.20;99.90
6518;DHT22;3292;48.944;9.240;2023-04-01T15:37:58;10.20;99.90
6518;DHT22;3292;48.944;9.240;2023-04-01T15:40:31;10.20;99.90
6518;DHT22;3292;48.944;9.240;2023-04-01T15:43:15;10.20;99.90
6518;DHT22;3292;48.944;9.240;2023-04-01T15:45:55;10.20;99.90
6518;DHT22;3292;48.944;9.240;2023-04-01T15:48:34;10.20;99.90
6518;DHT22;3292;48.944;9.240;2023-04-01T15:51:13;10.20;99.90
6518;DHT22;3292;48.944;9.240;2023-04-01T15:53:50;10.30;99.90
6518;DHT22;3292;48.944;9.240;2023-04-01T15:56:28;10.20;99.90
6518;DHT22;3292;48.944;9.240;2023-04-01T15:59:04;10.20;99.90
6518;DHT22;3292;48.944;9.240;2023-04-01T16:01:43;10.20;99.90
6518;DHT22;3292;48.944;9.240;2023-04-01T16:04:32;10.20;99.90
6518;DHT22;3292;48.944;9.240;2023-04-01T16:07:10;10.20;99.90
6518;DHT22;3292;48.944;9.240;2023-04-01T16:09:56;10.20;99.90
6518;DHT22;3292;48.944;9.240;2023-04-01T16:12:37;10.20;99.90
6518;DHT22;3292;48.944;9.240;2023-04-01T16:15:13;10.20;99.90
6518;DHT22;3292;48.944;9.240;2023-04-01T16:18:01;10.20;99.90
6518;DHT22;3292;48.944;9.240;2023-04-01T16:20:45;10.20;99.90
6518;DHT22;3292;48.944;9.240;2023-04-01T16:23:18;10.20;99.90
6518;DHT22;3292;48.944;9.240;2023-04-01T16:25:52;10.20;99.90
6518;DHT22;3292;48.944;9.240;2023-04-01T16:28:25;10.20;99.90
6518;DHT22;3292;48.944;9.240;2023-04-01T16:30:57;10.20;99.90
6518;DHT22;3292;48.944;9.240;2023-04-01T16:33:31;10.20;99.90
6518;DHT22;3292;48.944;9.240;2023-04-01T16:36:09;10.20;99.90
6518;DHT22;3292;48.944;9.240;2023-04-01T16:38:40;10.20;99.90
6518;DHT22;3292;48.944;9.240;2023-04-01T16:41:14;10.20;99.90
6518;DHT22;3292;48.944;9.240;2023-04-01T16:43:44;10.10;99.90
6518;DHT22;3292;48.944;9.240;2023-04-01T16:46:28;10.10;99.90
6518;DHT22;3292;48.944;9.240;2023-04-01T16:49:08;10.10;99.90
6518;DHT22;3292;48.944;9.240;2023-04-01T16:51:46;10.10;99.90
6518;DHT22;3292;48.944;9.240;2023-04-01T16:54:25;10.10;99.90
6518;DHT22;3292;48.944;9.240;2023-04-01T16:56:55;10.10;99.90
6518;DHT22;3292;48.944;9.240;2023-04-01T16:59:25;10.10;99.90
6518;DHT22;3292;48.944;9.240;2023-04-01T17:01:57;10.10;99.90
6518;DHT22;3292;48.944;9.240;2023-04-01T17:04:34;10.10;99.90
6518;DHT22;3292;48.944;9.240;2023-04-01T17:07:15;10.10;99.90
6518;DHT22;3292;48.944;9.240;2023-04-01T17:10:02;10.00;99.90
6518;DHT22;3292;48.944;9.240;2023-04-01T17:12:36;10.10;99.90
6518;DHT22;3292;48.944;9.240;2023-04-01T17:15:16;10.00;99.90
6518;DHT22;3292;48.944;9.240;2023-04-01T17:17:50;10.00;99.90
6518;DHT22;3292;48.944;9.240;2023-04-01T17:20:32;10.00;99.90
6518;DHT22;3292;48.944;9.240;2023-04-01T17:23:15;10.00;99.90
6518;DHT22;3292;48.944;9.240;2023-04-01T17:26:01;10.00;99.90
6518;DHT22;3292;48.944;9.240;2023-04-01T17:28:41;10.00;99.90
6518;DHT22;3292;48.944;9.240;2023-04-01T17:31:21;10.00;99.90
6518;DHT22;3292;48.944;9.240;2023-04-01T17:34:16;10.00;99.90
6518;DHT22;3292;48.944;9.240;2023-04-01T17:37:03;10.00;99.90
6518;DHT22;3292;48.944;9.240;2023-04-01T17:39:53;10.00;99.90
6518;DHT22;3292;48.944;9.240;2023-04-01T17:42:33;10.00;99.90
6518;DHT22;3292;48.944;9.240;2023-04-01T17:45:08;9.90;99.90
6518;DHT22;3292;48.944;9.240;2023-04-01T17:47:46;10.00;99.90
6518;DHT22;3292;48.944;9.240;2023-04-01T17:50:24;10.00;99.90
6518;DHT22;3292;48.944;9.240;2023-04-01T17:53:03;10.00;99.90
6518;DHT22;3292;48.944;9.240;2023-04-01T17:55:48;10.00;99.90
6518;DHT22;3292;48.944;9.240;2023-04-01T17:58:19;10.00;99.90
6518;DHT22;3292;48.944;9.240;2023-04-01T18:01:14;9.90;99.90
6518;DHT22;3292;48.944;9.240;2023-04-01T18:04:07;9.90;99.90
6518;DHT22;3292;48.944;9.240;2023-04-01T18:06:37;9.80;99.90
6518;DHT22;3292;48.944;9.240;2023-04-01T18:09:21;9.80;99.90
6518;DHT22;3292;48.944;9.240;2023-04-01T18:12:00;9.80;99.90
6518;DHT22;3292;48.944;9.240;2023-04-01T18:14:50;9.80;99.90
6518;DHT22;3292;48.944;9.240;2023-04-01T18:17:25;9.70;99.90
6518;DHT22;3292;48.944;9.240;2023-04-01T18:20:11;9.70;99.90
6518;DHT22;3292;48.944;9.240;2023-04-01T18:22:44;9.70;99.90
6518;DHT22;3292;48.944;9.240;2023-04-01T18:25:18;9.70;99.90
6518;DHT22;3292;48.944;9.240;2023-04-01T18:27:50;9.60;99.90
6518;DHT22;3292;48.944;9.240;2023-04-01T18:30:21;9.60;99.90
6518;DHT22;3292;48.944;9.240;2023-04-01T18:32:51;9.60;99.90
6518;DHT22;3292;48.944;9.240;2023-04-01T18:35:29;9.60;99.90
6518;DHT22;3292;48.944;9.240;2023-04-01T18:38:04;9.60;99.90
6518;DHT22;3292;48.944;9.240;2023-04-01T18:40:36;9.60;99.90
6518;DHT22;3292;48.944;9.240;2023-04-01T18:43:12;9.60;99.90
6518;DHT22;3292;48.944;9.240;2023-04-01T18:45:45;9.60;99.90